createdAt,value
2017-07-31T00:00:10.160Z,97235.16
2017-07-31T00:02:37.942Z,97222.80
2017-07-31T00:05:05.536Z,97243.75
2017-07-31T00:07:33.111Z,97249.89
2017-07-31T00:10:00.736Z,97232.14
2017-07-31T00:12:28.299Z,97232.06
2017-07-31T00:14:55.887Z,97230.72
2017-07-31T00:17:23.511Z,97227.80
2017-07-31T00:19:51.117Z,97222.02
2017-07-31T00:22:18.718Z,97211.92
2017-07-31T00:24:46.291Z,97210.72
2017-07-31T00:27:13.977Z,97201.32
2017-07-31T00:29:41.583Z,97199.60
2017-07-31T00:32:09.199Z,97196.64
2017-07-31T00:34:36.832Z,97183.76
2017-07-31T00:37:04.487Z,97166.19
2017-07-31T00:39:32.085Z,97159.45
2017-07-31T00:41:59.694Z,97171.56
2017-07-31T00:44:27.271Z,97159.13
2017-07-31T00:46:54.897Z,97153.25
2017-07-31T00:49:22.501Z,97150.77
2017-07-31T00:51:50.129Z,97148.83
2017-07-31T00:54:17.706Z,97151.53
2017-07-31T00:56:45.345Z,97155.56
2017-07-31T00:59:12.910Z,97140.66
2017-07-31T01:01:40.515Z,97124.37
2017-07-31T01:04:08.106Z,97117.45
2017-07-31T01:06:35.698Z,97090.86
2017-07-31T01:09:03.305Z,97065.92
2017-07-31T01:11:31.056Z,97052.09
2017-07-31T01:13:58.662Z,97027.25
2017-07-31T01:16:26.441Z,96979.24
2017-07-31T01:18:54.034Z,96963.98
2017-07-31T01:21:22.472Z,96961.20
2017-07-31T01:23:50.068Z,96935.56
2017-07-31T01:26:17.672Z,96938.28
2017-07-31T01:28:45.247Z,96927.65
2017-07-31T01:31:13.040Z,96913.53
2017-07-31T01:33:40.652Z,96901.28
2017-07-31T01:36:08.262Z,96903.14
2017-07-31T01:38:35.850Z,96901.09
2017-07-31T01:41:03.773Z,96915.62
2017-07-31T01:43:31.337Z,96910.81
2017-07-31T01:45:59.000Z,96904.33
2017-07-31T01:48:26.587Z,96906.05
2017-07-31T01:50:54.207Z,96915.87
2017-07-31T01:53:21.791Z,96915.83
2017-07-31T01:55:49.360Z,96904.24
2017-07-31T01:58:16.960Z,96908.05
2017-07-31T02:00:44.562Z,96911.48
2017-07-31T02:03:12.202Z,96916.20
2017-07-31T02:05:39.787Z,96933.88
2017-07-31T02:08:07.411Z,96935.81
2017-07-31T02:10:35.009Z,96947.39
2017-07-31T02:13:02.611Z,96961.16
2017-07-31T02:15:30.200Z,96962.55
2017-07-31T02:17:57.902Z,96954.02
2017-07-31T02:20:25.849Z,96951.61
2017-07-31T02:22:53.533Z,96950.03
2017-07-31T02:25:21.124Z,96957.02
2017-07-31T02:27:48.728Z,96965.59
2017-07-31T02:30:16.327Z,96966.48
2017-07-31T02:32:44.025Z,96972.48
2017-07-31T02:35:11.600Z,96981.88
2017-07-31T02:37:39.259Z,96976.73
2017-07-31T02:40:06.827Z,96975.87
2017-07-31T02:42:34.427Z,96977.16
2017-07-31T02:45:02.011Z,96977.23
2017-07-31T02:47:29.629Z,96965.33
2017-07-31T02:49:57.242Z,96955.08
2017-07-31T02:52:24.844Z,96963.18
2017-07-31T02:54:52.465Z,96984.14
2017-07-31T02:57:20.095Z,96985.47
2017-07-31T02:59:47.685Z,96992.80
2017-07-31T03:02:15.291Z,96997.08
2017-07-31T03:04:42.894Z,96998.40
2017-07-31T03:07:10.513Z,97005.65
2017-07-31T03:09:38.186Z,97004.75
2017-07-31T03:12:05.781Z,97004.31
2017-07-31T03:14:33.392Z,96999.22
2017-07-31T03:17:00.978Z,97003.89
2017-07-31T03:19:28.588Z,97010.33
2017-07-31T03:21:56.189Z,97016.83
2017-07-31T03:24:23.806Z,97011.77
2017-07-31T03:26:51.436Z,97011.80
2017-07-31T03:29:19.112Z,97009.66
2017-07-31T03:31:46.720Z,97011.77
2017-07-31T03:34:14.394Z,97012.63
2017-07-31T03:36:42.073Z,97012.28
2017-07-31T03:39:09.707Z,97017.96
2017-07-31T03:41:37.300Z,97025.75
2017-07-31T03:44:04.910Z,97021.19
2017-07-31T03:46:32.702Z,97021.23
2017-07-31T03:49:00.710Z,97029.37
2017-07-31T03:51:28.295Z,97026.83
2017-07-31T03:53:55.976Z,97029.44
2017-07-31T03:56:23.547Z,97019.63
2017-07-31T03:58:51.268Z,97014.48
2017-07-31T04:01:18.850Z,97019.63
2017-07-31T04:03:46.615Z,97023.05
2017-07-31T04:06:14.273Z,97025.20
2017-07-31T04:08:41.891Z,97027.77
2017-07-31T04:11:09.482Z,97023.98
2017-07-31T04:13:37.089Z,97028.23
2017-07-31T04:16:04.718Z,97032.48
2017-07-31T04:18:32.321Z,97038.08
2017-07-31T04:20:59.930Z,97046.64
2017-07-31T04:23:27.543Z,97042.36
2017-07-31T04:25:55.120Z,97050.47
2017-07-31T04:28:22.767Z,97050.47
2017-07-31T04:30:50.368Z,97047.44
2017-07-31T04:33:17.973Z,97041.01
2017-07-31T04:35:45.567Z,97029.87
2017-07-31T04:38:13.547Z,97042.26
2017-07-31T04:40:41.147Z,97047.82
2017-07-31T04:43:08.750Z,97050.36
2017-07-31T04:45:36.381Z,97051.64
2017-07-31T04:48:03.974Z,97046.00
2017-07-31T04:50:31.555Z,97041.21
2017-07-31T04:52:59.127Z,97035.64
2017-07-31T04:55:26.749Z,97050.98
2017-07-31T04:57:54.335Z,97048.38
2017-07-31T05:00:21.977Z,97048.27
2017-07-31T05:02:49.595Z,97049.13
2017-07-31T05:05:17.200Z,97051.27
2017-07-31T05:07:44.792Z,97061.08
2017-07-31T05:10:12.398Z,97060.23
2017-07-31T05:12:40.024Z,97066.15
2017-07-31T05:15:07.825Z,97066.54
2017-07-31T05:17:35.432Z,97063.50
2017-07-31T05:20:03.049Z,97063.00
2017-07-31T05:22:30.677Z,97063.38
2017-07-31T05:24:58.333Z,97065.92
2017-07-31T05:27:25.946Z,97067.13
2017-07-31T05:29:53.580Z,97064.08
2017-07-31T05:32:21.241Z,97061.36
2017-07-31T05:34:48.883Z,97059.95
2017-07-31T05:37:16.496Z,97062.43
2017-07-31T05:39:44.187Z,97062.31
2017-07-31T05:42:11.788Z,97073.89
2017-07-31T05:44:39.397Z,97075.56
2017-07-31T05:47:06.989Z,97075.13
2017-07-31T05:49:34.711Z,97074.66
2017-07-31T05:52:02.387Z,97079.73
2017-07-31T05:54:30.005Z,97083.93
2017-07-31T05:56:57.782Z,97081.66
2017-07-31T05:59:25.420Z,97084.08
2017-07-31T06:01:53.020Z,97076.27
2017-07-31T06:04:20.657Z,97095.02
2017-07-31T06:06:48.278Z,97091.37
2017-07-31T06:09:15.893Z,97090.37
2017-07-31T06:11:43.506Z,97086.39
2017-07-31T06:14:11.088Z,97087.25
2017-07-31T06:16:38.708Z,97085.45
2017-07-31T06:19:06.292Z,97086.20
2017-07-31T06:21:33.913Z,97092.17
2017-07-31T06:24:01.519Z,97098.48
2017-07-31T06:26:29.143Z,97103.11
2017-07-31T06:28:56.759Z,97106.03
2017-07-31T06:31:24.406Z,97109.84
2017-07-31T06:33:52.027Z,97101.11
2017-07-31T06:36:19.619Z,97108.27
2017-07-31T06:38:47.214Z,97111.04
2017-07-31T06:41:14.912Z,97107.32
2017-07-31T06:43:42.502Z,97114.39
2017-07-31T06:46:10.121Z,97106.52
2017-07-31T06:48:37.751Z,97112.86
2017-07-31T06:51:05.368Z,97106.60
2017-07-31T06:53:33.146Z,97112.58
2017-07-31T06:56:00.754Z,97115.80
2017-07-31T06:58:28.349Z,97112.55
2017-07-31T07:00:55.973Z,97112.30
2017-07-31T07:03:23.570Z,97110.34
2017-07-31T07:05:51.173Z,97113.48
2017-07-31T07:08:18.770Z,97117.95
2017-07-31T07:10:46.389Z,97122.89
2017-07-31T07:13:14.029Z,97120.95
2017-07-31T07:15:41.627Z,97124.50
2017-07-31T07:18:09.228Z,97124.77
2017-07-31T07:20:36.907Z,97118.05
2017-07-31T07:23:10.072Z,97116.38
2017-07-31T07:25:37.699Z,97115.92
2017-07-31T07:28:05.297Z,97120.24
2017-07-31T07:30:33.036Z,97113.02
2017-07-31T07:33:00.627Z,97122.67
2017-07-31T07:35:28.259Z,97126.24
2017-07-31T07:37:55.884Z,97128.91
2017-07-31T07:40:23.468Z,97133.89
2017-07-31T07:42:51.103Z,97132.11
2017-07-31T07:45:18.714Z,97130.74
2017-07-31T07:47:46.318Z,97135.84
2017-07-31T07:50:13.940Z,97130.25
2017-07-31T07:52:41.558Z,97137.96
2017-07-31T07:55:09.173Z,97137.38
2017-07-31T07:57:36.797Z,97141.48
2017-07-31T08:00:04.397Z,97146.16
2017-07-31T08:02:31.995Z,97144.12
2017-07-31T08:04:59.622Z,97135.73
2017-07-31T08:07:27.320Z,97141.09
2017-07-31T08:09:54.917Z,97138.38
2017-07-31T08:12:22.555Z,97137.15
2017-07-31T08:14:50.181Z,97135.73
2017-07-31T08:17:17.911Z,97141.52
2017-07-31T08:19:45.631Z,97142.11
2017-07-31T08:22:13.401Z,97144.45
2017-07-31T08:24:41.000Z,97142.70
2017-07-31T08:27:08.615Z,97132.88
2017-07-31T08:29:36.230Z,97135.72
2017-07-31T08:32:03.814Z,97128.69
2017-07-31T08:34:31.444Z,97119.42
2017-07-31T08:36:59.054Z,97119.30
2017-07-31T08:39:26.660Z,97122.13
2017-07-31T08:41:54.289Z,97123.21
2017-07-31T08:44:21.901Z,97128.52
2017-07-31T08:46:49.490Z,97131.34
2017-07-31T08:49:17.073Z,97129.84
2017-07-31T08:51:44.783Z,97128.88
2017-07-31T08:54:12.390Z,97135.41
2017-07-31T08:56:40.399Z,97135.77
2017-07-31T08:59:08.007Z,97125.19
2017-07-31T09:01:35.618Z,97130.28
2017-07-31T09:04:03.206Z,97132.69
2017-07-31T09:06:30.796Z,97123.82
2017-07-31T09:08:58.438Z,97120.56
2017-07-31T09:11:26.022Z,97124.14
2017-07-31T09:13:53.680Z,97132.50
2017-07-31T09:16:21.259Z,97131.34
2017-07-31T09:18:48.880Z,97126.04
2017-07-31T09:21:16.483Z,97119.75
2017-07-31T09:23:44.102Z,97112.11
2017-07-31T09:26:11.693Z,97120.50
2017-07-31T09:28:39.323Z,97122.30
2017-07-31T09:31:06.929Z,97119.28
2017-07-31T09:33:34.681Z,97118.05
2017-07-31T09:36:02.311Z,97116.59
2017-07-31T09:38:30.018Z,97115.52
2017-07-31T09:40:57.667Z,97109.38
2017-07-31T09:43:25.289Z,97114.58
2017-07-31T09:45:52.903Z,97121.53
2017-07-31T09:48:20.531Z,97112.70
2017-07-31T09:50:48.219Z,97111.30
2017-07-31T09:53:15.996Z,97106.01
2017-07-31T09:55:43.788Z,97101.19
2017-07-31T09:58:11.398Z,97103.13
2017-07-31T10:00:38.980Z,97096.70
2017-07-31T10:03:06.646Z,97098.96
2017-07-31T10:05:34.242Z,97095.29
2017-07-31T10:08:01.855Z,97105.28
2017-07-31T10:10:29.513Z,97103.82
2017-07-31T10:12:57.128Z,97103.13
2017-07-31T10:15:24.733Z,97105.42
2017-07-31T10:17:52.390Z,97101.80
2017-07-31T10:20:19.980Z,97113.86
2017-07-31T10:22:47.605Z,97114.73
2017-07-31T10:25:15.235Z,97119.91
2017-07-31T10:27:42.927Z,97112.86
2017-07-31T10:30:10.540Z,97110.83
2017-07-31T10:32:38.545Z,97121.95
2017-07-31T10:35:06.150Z,97118.11
2017-07-31T10:37:34.865Z,97115.94
2017-07-31T10:40:02.600Z,97118.72
2017-07-31T10:42:30.205Z,97120.02
2017-07-31T10:44:57.804Z,97118.17
2017-07-31T10:47:25.430Z,97120.80
2017-07-31T10:49:53.073Z,97127.61
2017-07-31T10:52:20.802Z,97134.41
2017-07-31T10:54:48.429Z,97125.92
2017-07-31T10:57:16.021Z,97126.41
2017-07-31T10:59:43.642Z,97127.36
2017-07-31T11:02:11.280Z,97125.17
2017-07-31T11:04:38.930Z,97132.30
2017-07-31T11:07:06.519Z,97133.91
2017-07-31T11:09:34.244Z,97129.83
2017-07-31T11:12:01.900Z,97122.11
2017-07-31T11:14:29.769Z,97112.87
2017-07-31T11:16:57.464Z,97108.73
2017-07-31T11:19:25.303Z,97102.38
2017-07-31T11:21:52.876Z,97098.36
2017-07-31T11:24:20.487Z,97104.01
2017-07-31T11:26:48.082Z,97097.61
2017-07-31T11:29:15.697Z,97094.14
2017-07-31T11:31:43.286Z,97090.20
2017-07-31T11:34:10.917Z,97084.08
2017-07-31T11:36:38.550Z,97090.45
2017-07-31T11:39:06.172Z,97079.80
2017-07-31T11:41:33.791Z,97074.71
2017-07-31T11:44:01.421Z,97076.38
2017-07-31T11:46:29.011Z,97070.67
2017-07-31T11:48:56.714Z,97067.17
2017-07-31T11:51:24.286Z,97061.06
2017-07-31T11:53:51.900Z,97062.82
2017-07-31T11:56:19.699Z,97065.42
2017-07-31T11:58:47.323Z,97050.85
2017-07-31T12:01:14.980Z,97050.26
2017-07-31T12:03:42.600Z,97033.28
2017-07-31T12:06:10.213Z,97028.91
2017-07-31T12:08:37.823Z,97017.47
2017-07-31T12:11:05.459Z,97016.79
2017-07-31T12:13:33.531Z,97011.72
2017-07-31T12:16:01.169Z,96995.91
2017-07-31T12:18:28.760Z,96981.75
2017-07-31T12:20:56.390Z,96964.62
2017-07-31T12:23:23.987Z,96951.05
2017-07-31T12:25:51.609Z,96955.03
2017-07-31T12:28:19.191Z,96966.13
2017-07-31T12:30:46.826Z,96968.77
2017-07-31T12:33:14.456Z,96984.50
2017-07-31T12:35:42.198Z,96991.55
2017-07-31T12:38:09.814Z,97005.09
2017-07-31T12:40:37.459Z,97001.39
2017-07-31T12:43:05.291Z,96993.33
2017-07-31T12:45:32.895Z,96978.89
2017-07-31T12:48:00.500Z,96970.28
2017-07-31T12:50:28.118Z,96962.36
2017-07-31T12:52:55.709Z,96960.48
2017-07-31T12:55:23.362Z,96962.75
2017-07-31T12:57:50.954Z,96957.22
2017-07-31T13:00:18.601Z,96961.41
2017-07-31T13:02:46.170Z,96955.23
2017-07-31T13:05:13.801Z,96962.24
2017-07-31T13:07:41.417Z,96959.98
2017-07-31T13:10:09.034Z,96966.41
2017-07-31T13:12:36.618Z,96972.78
2017-07-31T13:15:04.239Z,96980.17
2017-07-31T13:17:31.826Z,96979.71
2017-07-31T13:19:59.431Z,96983.78
2017-07-31T13:22:27.058Z,96988.55
2017-07-31T13:24:54.686Z,96992.30
2017-07-31T13:27:22.309Z,96999.75
2017-07-31T13:29:50.330Z,96998.13
2017-07-31T13:32:18.059Z,96998.42
2017-07-31T13:34:45.687Z,97006.44
2017-07-31T13:37:13.352Z,97007.27
2017-07-31T13:39:41.047Z,97014.31
2017-07-31T13:42:08.669Z,97009.55
2017-07-31T13:44:36.272Z,97015.69
2017-07-31T13:47:03.908Z,97010.31
2017-07-31T13:49:31.535Z,97012.41
2017-07-31T13:51:59.166Z,97007.94
2017-07-31T13:54:27.980Z,97014.38
2017-07-31T13:56:55.603Z,97013.13
2017-07-31T13:59:23.236Z,97015.09
2017-07-31T14:01:50.854Z,97014.40
2017-07-31T14:04:18.481Z,97016.56
2017-07-31T14:06:46.324Z,97017.00
2017-07-31T14:09:13.923Z,97016.59
2017-07-31T14:11:41.537Z,97013.84
2017-07-31T14:14:09.142Z,97013.84
2017-07-31T14:16:36.845Z,97012.20
2017-07-31T14:19:04.440Z,97012.05
2017-07-31T14:21:32.232Z,97008.17
2017-07-31T14:23:59.814Z,97004.81
2017-07-31T14:26:27.451Z,97012.41
2017-07-31T14:28:55.062Z,97021.09
2017-07-31T14:31:22.689Z,97015.36
2017-07-31T14:33:50.320Z,97022.20
2017-07-31T14:36:17.961Z,97023.41
2017-07-31T14:38:45.573Z,97030.36
2017-07-31T14:41:13.195Z,97030.69
2017-07-31T14:43:40.809Z,97037.33
2017-07-31T14:46:08.564Z,97035.37
2017-07-31T14:48:36.160Z,97036.80
2017-07-31T14:51:03.779Z,97040.53
2017-07-31T14:53:31.390Z,97035.79
2017-07-31T14:55:59.002Z,97037.39
2017-07-31T14:58:26.599Z,97038.88
2017-07-31T15:00:54.314Z,97031.68
2017-07-31T15:03:21.914Z,97036.45
2017-07-31T15:05:49.550Z,97036.34
2017-07-31T15:08:17.258Z,97037.94
2017-07-31T15:10:44.885Z,97041.16
2017-07-31T15:13:12.497Z,97038.23
2017-07-31T15:15:40.241Z,97038.10
2017-07-31T15:18:07.856Z,97035.31
2017-07-31T15:20:35.467Z,97036.19
2017-07-31T15:23:03.087Z,97034.78
2017-07-31T15:25:30.687Z,97031.81
2017-07-31T15:27:58.320Z,97037.38
2017-07-31T15:30:25.947Z,97034.48
2017-07-31T15:32:53.586Z,97026.94
2017-07-31T15:35:21.212Z,97015.19
2017-07-31T15:37:49.001Z,97010.98
2017-07-31T15:40:16.594Z,97019.44
2017-07-31T15:42:44.238Z,97024.31
2017-07-31T15:45:11.845Z,97026.47
2017-07-31T15:47:39.617Z,97025.94
2017-07-31T15:50:07.207Z,97018.70
2017-07-31T15:52:34.881Z,97001.59
2017-07-31T15:55:02.497Z,96993.82
2017-07-31T15:57:30.110Z,96995.00
2017-07-31T16:02:31.501Z,96996.63
2017-07-31T16:04:59.141Z,96986.23
2017-07-31T16:07:26.797Z,96979.47
2017-07-31T16:09:54.525Z,96982.43
2017-07-31T16:12:22.158Z,96975.11
2017-07-31T16:14:49.767Z,96956.81
2017-07-31T16:17:17.566Z,96952.63
2017-07-31T16:19:45.167Z,96954.31
2017-07-31T16:22:12.763Z,96953.88
2017-07-31T16:24:40.389Z,96969.30
2017-07-31T16:27:07.997Z,96972.46
2017-07-31T16:29:35.850Z,96968.17
2017-07-31T16:32:03.466Z,96963.23
2017-07-31T16:34:31.108Z,96958.89
2017-07-31T16:36:58.706Z,96954.51
2017-07-31T16:39:26.391Z,96957.45
2017-07-31T16:42:08.864Z,96957.45
2017-07-31T16:44:48.397Z,96972.61
2017-07-31T16:47:27.782Z,96963.44
2017-07-31T16:49:55.409Z,96961.65
2017-07-31T16:52:23.264Z,96963.95
2017-07-31T16:54:50.910Z,96965.30
2017-07-31T16:57:18.597Z,96965.86
2017-07-31T16:59:46.227Z,96972.89
2017-07-31T17:02:13.851Z,96971.66
2017-07-31T17:04:42.751Z,96968.15
2017-07-31T17:07:10.393Z,96971.50
2017-07-31T17:09:38.044Z,96963.34
2017-07-31T17:12:05.660Z,96963.55
2017-07-31T17:14:33.301Z,96958.31
2017-07-31T17:17:00.906Z,96954.31
2017-07-31T17:19:28.543Z,96946.63
2017-07-31T17:21:56.143Z,96948.52
2017-07-31T17:24:24.120Z,96943.38
2017-07-31T17:26:51.792Z,96956.39
2017-07-31T17:29:19.409Z,96960.55
2017-07-31T17:31:47.026Z,96962.19
2017-07-31T17:34:14.640Z,96958.92
2017-07-31T17:36:42.312Z,96952.83
2017-07-31T17:39:09.920Z,96951.92
2017-07-31T17:41:37.840Z,96958.19
2017-07-31T17:44:05.555Z,96951.24
2017-07-31T17:46:33.157Z,96966.58
2017-07-31T17:49:00.798Z,96969.58
2017-07-31T17:51:28.401Z,96964.03
2017-07-31T17:53:56.052Z,96970.36
2017-07-31T17:56:23.688Z,96967.36
2017-07-31T17:58:51.334Z,96975.55
2017-07-31T18:01:19.077Z,96964.88
2017-07-31T18:03:46.976Z,96967.06
2017-07-31T18:06:14.571Z,96953.27
2017-07-31T18:08:42.175Z,96962.42
2017-07-31T18:11:09.867Z,96958.11
2017-07-31T18:13:37.588Z,96959.98
2017-07-31T18:16:05.196Z,96964.64
2017-07-31T18:18:32.934Z,96971.05
2017-07-31T18:21:00.560Z,96966.16
2017-07-31T18:23:28.344Z,96966.44
2017-07-31T18:25:56.371Z,96960.71
2017-07-31T18:28:23.953Z,96967.18
2017-07-31T18:30:51.785Z,96972.28
2017-07-31T18:33:19.418Z,96973.89
2017-07-31T18:35:47.060Z,96968.52
2017-07-31T18:38:14.753Z,96961.50
2017-07-31T18:40:42.349Z,96958.95
2017-07-31T18:43:10.076Z,96966.73
2017-07-31T18:45:37.705Z,96974.58
2017-07-31T18:48:05.320Z,96969.03
2017-07-31T18:50:33.134Z,96970.29
2017-07-31T18:53:00.777Z,96971.12
2017-07-31T18:55:28.430Z,96976.60
2017-07-31T18:57:56.829Z,96971.28
2017-07-31T19:00:24.442Z,96976.00
2017-07-31T19:02:52.065Z,96966.78
2017-07-31T19:05:19.774Z,96974.87
2017-07-31T19:07:47.370Z,96972.59
2017-07-31T19:10:14.995Z,96968.12
2017-07-31T19:12:42.724Z,96969.34
2017-07-31T19:15:10.316Z,96970.09
2017-07-31T19:17:38.074Z,96965.71
2017-07-31T19:20:05.664Z,96964.44
2017-07-31T19:22:33.313Z,96962.28
2017-07-31T19:25:00.928Z,96966.17
2017-07-31T19:27:28.587Z,96955.70
2017-07-31T19:29:56.638Z,96965.89
2017-07-31T19:32:24.271Z,96967.98
2017-07-31T19:34:52.078Z,96965.59
2017-07-31T19:37:19.754Z,96959.47
2017-07-31T19:39:47.371Z,96966.72
2017-07-31T19:42:15.120Z,96969.69
2017-07-31T19:44:42.775Z,96970.80
2017-07-31T19:47:10.415Z,96957.56
2017-07-31T19:49:38.042Z,96962.18
2017-07-31T19:52:05.673Z,96959.92
2017-07-31T19:54:33.279Z,96956.29
2017-07-31T19:57:00.921Z,96960.87
2017-07-31T19:59:28.507Z,96955.50
2017-07-31T20:01:56.138Z,96954.09
2017-07-31T20:04:23.797Z,96953.58
2017-07-31T20:06:51.639Z,96949.11
2017-07-31T20:09:19.261Z,96944.58
2017-07-31T20:11:46.897Z,96947.80
2017-07-31T20:14:14.499Z,96948.39
2017-07-31T20:16:42.137Z,96956.28
2017-07-31T20:19:09.760Z,96954.77
2017-07-31T20:21:37.402Z,96958.85
2017-07-31T20:24:05.133Z,96954.70
2017-07-31T20:26:32.772Z,96957.26
2017-07-31T20:29:00.375Z,96957.09
2017-07-31T20:31:28.118Z,96954.27
2017-07-31T20:33:55.703Z,96943.69
2017-07-31T20:36:23.308Z,96948.95
2017-07-31T20:38:51.391Z,96955.20
2017-07-31T20:41:19.003Z,96950.69
2017-07-31T20:43:46.623Z,96957.41
2017-07-31T20:46:14.226Z,96953.76
2017-07-31T20:48:41.957Z,96955.20
2017-07-31T20:51:09.568Z,96950.53
2017-07-31T20:53:37.228Z,96951.06
2017-07-31T20:56:04.855Z,96958.56
2017-07-31T20:58:33.158Z,96960.95
2017-07-31T21:01:00.793Z,96958.55
2017-07-31T21:03:28.804Z,96962.22
2017-07-31T21:05:56.423Z,96966.20
2017-07-31T21:08:24.089Z,96960.39
2017-07-31T21:10:51.674Z,96958.81
2017-07-31T21:13:19.317Z,96955.97
2017-07-31T21:15:46.938Z,96957.70
2017-07-31T21:18:14.561Z,96956.91
2017-07-31T21:20:42.167Z,96958.35
2017-07-31T21:23:09.804Z,96955.92
2017-07-31T21:25:37.413Z,96951.39
2017-07-31T21:28:05.242Z,96946.72
2017-07-31T21:30:32.876Z,96953.22
2017-07-31T21:33:00.672Z,96951.55
2017-07-31T21:35:28.304Z,96950.70
2017-07-31T21:37:55.920Z,96946.01
2017-07-31T21:40:23.590Z,96941.72
2017-07-31T21:42:51.199Z,96938.84
2017-07-31T21:45:18.775Z,96936.49
2017-07-31T21:47:46.484Z,96940.52
2017-07-31T21:50:14.117Z,96934.64
2017-07-31T21:52:41.733Z,96937.87
2017-07-31T21:55:09.336Z,96929.02
2017-07-31T21:57:36.971Z,96925.27
2017-07-31T22:00:04.608Z,96921.47
2017-07-31T22:02:32.503Z,96925.88
2017-07-31T22:05:00.113Z,96914.80
2017-07-31T22:07:27.705Z,96918.84
2017-07-31T22:09:55.331Z,96915.90
2017-07-31T22:12:22.948Z,96915.97
2017-07-31T22:14:50.596Z,96908.71
2017-07-31T22:17:25.418Z,96913.58
2017-07-31T22:19:53.054Z,96903.41
2017-07-31T22:22:20.646Z,96895.81
2017-07-31T22:30:29.655Z,96895.73
2017-07-31T22:32:57.324Z,96891.08
2017-07-31T22:35:24.907Z,96888.19
2017-07-31T22:37:52.537Z,96880.56
2017-07-31T22:40:21.016Z,96877.63
2017-07-31T22:42:48.659Z,96877.70
2017-07-31T22:45:16.303Z,96883.37
2017-07-31T22:47:43.940Z,96874.03
2017-07-31T22:50:11.592Z,96869.28
2017-07-31T22:52:39.221Z,96876.19
2017-07-31T22:55:06.927Z,96871.94
2017-07-31T22:57:34.555Z,96877.55
2017-07-31T23:00:02.178Z,96872.39
2017-07-31T23:02:29.768Z,96875.09
2017-07-31T23:04:58.000Z,96867.84
2017-07-31T23:07:25.602Z,96868.30
2017-07-31T23:09:53.245Z,96861.47
2017-07-31T23:12:20.965Z,96861.59
2017-07-31T23:14:48.623Z,96859.94
2017-07-31T23:17:17.475Z,96863.45
2017-07-31T23:19:45.129Z,96854.55
2017-07-31T23:22:12.729Z,96851.55
2017-07-31T23:24:41.520Z,96848.23
2017-07-31T23:27:09.125Z,96847.80
2017-07-31T23:29:36.777Z,96848.72
2017-07-31T23:32:04.540Z,96841.42
2017-07-31T23:34:32.203Z,96847.08
2017-07-31T23:36:59.817Z,96839.84
2017-07-31T23:39:27.461Z,96842.98
2017-07-31T23:41:55.086Z,96837.89
2017-07-31T23:44:22.753Z,96828.05
2017-07-31T23:46:50.349Z,96821.20
2017-07-31T23:49:17.960Z,96819.52
2017-07-31T23:51:45.568Z,96814.37
2017-07-31T23:54:13.310Z,96813.56
2017-07-31T23:56:40.981Z,96823.91
2017-07-31T23:59:08.650Z,96822.13
